createdAt,value
2022-12-18T00:00:04.925Z,4.40
2022-12-18T00:01:04.918Z,6.30
2022-12-18T00:02:04.929Z,5.60
2022-12-18T00:03:05.004Z,5.60
2022-12-18T00:04:04.947Z,5.50
2022-12-18T00:05:05.330Z,7.60
2022-12-18T00:06:04.795Z,5.90
2022-12-18T00:07:05.392Z,5.80
2022-12-18T00:08:04.816Z,5.40
2022-12-18T00:09:04.738Z,6.60
2022-12-18T00:10:04.682Z,5.40
2022-12-18T00:11:04.759Z,6.30
2022-12-18T00:13:08.293Z,4.70
2022-12-18T00:14:04.667Z,3.80
2022-12-18T00:15:04.636Z,5.10
2022-12-18T00:16:04.700Z,3.80
2022-12-18T00:17:04.676Z,8.60
2022-12-18T00:18:04.658Z,6.40
2022-12-18T00:19:04.993Z,5.80
2022-12-18T00:20:04.595Z,7.80
2022-12-18T00:21:04.578Z,4.30
2022-12-18T00:22:04.635Z,7.80
2022-12-18T00:23:04.615Z,7.10
2022-12-18T00:24:04.644Z,6.50
2022-12-18T00:25:04.602Z,6.00
2022-12-18T00:26:04.835Z,5.00
2022-12-18T00:27:04.531Z,6.80
2022-12-18T00:28:04.522Z,7.20
2022-12-18T00:29:05.749Z,4.90
2022-12-18T00:30:04.564Z,6.10
2022-12-18T00:31:04.698Z,5.40
2022-12-18T00:32:04.546Z,5.40
2022-12-18T00:33:04.761Z,6.30
2022-12-18T00:34:04.460Z,6.50
2022-12-18T00:35:04.445Z,5.10
2022-12-18T00:36:04.439Z,7.60
2022-12-18T00:37:04.465Z,5.60
2022-12-18T00:38:04.402Z,6.60
2022-12-18T00:39:04.420Z,6.00
2022-12-18T00:40:04.684Z,5.20
2022-12-18T00:41:04.413Z,5.50
2022-12-18T00:42:04.420Z,7.60
2022-12-18T00:43:04.434Z,6.80
2022-12-18T00:44:04.355Z,4.90
2022-12-18T00:45:09.104Z,5.70
2022-12-18T00:46:04.405Z,9.40
2022-12-18T00:47:04.622Z,5.80
2022-12-18T00:48:04.317Z,5.10
2022-12-18T00:49:04.394Z,5.50
2022-12-18T00:50:04.305Z,5.90
2022-12-18T00:51:04.291Z,4.40
2022-12-18T00:52:04.281Z,5.40
2022-12-18T00:53:04.274Z,6.20
2022-12-18T00:54:04.573Z,5.90
2022-12-18T00:55:06.503Z,8.40
2022-12-18T00:56:04.247Z,6.80
2022-12-18T00:57:04.236Z,6.90
2022-12-18T00:58:04.211Z,7.70
2022-12-18T00:59:04.217Z,6.30
2022-12-18T01:00:04.274Z,9.40
2022-12-18T01:01:04.620Z,6.30
2022-12-18T01:02:04.331Z,8.70
2022-12-18T01:03:04.317Z,6.30
2022-12-18T01:04:04.180Z,3.90
2022-12-18T01:05:04.192Z,4.20
2022-12-18T01:06:04.147Z,7.40
2022-12-18T01:07:04.187Z,6.50
2022-12-18T01:08:04.400Z,7.30
2022-12-18T01:09:04.140Z,5.50
2022-12-18T01:10:04.135Z,4.20
2022-12-18T01:11:04.104Z,7.30
2022-12-18T01:12:04.088Z,3.70
2022-12-18T01:13:04.174Z,5.20
2022-12-18T01:14:04.079Z,5.90
2022-12-18T01:15:04.392Z,6.60
2022-12-18T01:16:04.117Z,5.00
2022-12-18T01:17:04.060Z,9.40
2022-12-18T01:18:04.035Z,8.10
2022-12-18T01:19:04.058Z,8.70
2022-12-18T01:20:04.031Z,6.80
2022-12-18T01:21:04.007Z,8.20
2022-12-18T01:22:04.331Z,6.80
2022-12-18T01:23:04.017Z,5.30
2022-12-18T01:24:03.987Z,5.20
2022-12-18T01:25:03.995Z,6.00
2022-12-18T01:26:03.953Z,3.20
2022-12-18T01:27:03.955Z,6.50
2022-12-18T01:28:03.938Z,5.80
2022-12-18T01:29:04.269Z,6.60
2022-12-18T01:30:03.953Z,7.60
2022-12-18T01:31:03.967Z,5.90
2022-12-18T01:32:03.985Z,7.90
2022-12-18T01:33:03.920Z,6.20
2022-12-18T01:34:03.882Z,5.80
2022-12-18T01:35:03.888Z,5.50
2022-12-18T01:36:04.157Z,8.50
2022-12-18T01:37:03.895Z,6.20
2022-12-18T01:38:03.851Z,5.40
2022-12-18T01:39:03.832Z,2.90
2022-12-18T01:40:03.825Z,5.20
2022-12-18T01:41:03.837Z,6.20
2022-12-18T01:42:03.808Z,3.70
2022-12-18T01:43:04.166Z,5.10
2022-12-18T01:44:03.793Z,6.70
2022-12-18T01:45:03.795Z,6.20
2022-12-18T01:46:03.853Z,7.70
2022-12-18T01:47:03.779Z,5.90
2022-12-18T01:48:03.778Z,7.20
2022-12-18T01:49:03.770Z,6.50
2022-12-18T01:50:04.057Z,7.40
2022-12-18T01:51:03.746Z,5.70
2022-12-18T01:52:03.718Z,7.30
2022-12-18T01:53:03.719Z,5.40
2022-12-18T01:54:03.705Z,5.60
2022-12-18T01:55:03.727Z,5.60
2022-12-18T01:56:03.691Z,8.40
2022-12-18T01:57:03.961Z,5.30
2022-12-18T01:58:03.659Z,4.80
2022-12-18T01:59:03.663Z,6.10
2022-12-18T02:00:03.659Z,5.00
2022-12-18T02:01:03.725Z,4.10
2022-12-18T02:02:03.885Z,4.20
2022-12-18T02:03:03.668Z,6.60
2022-12-18T02:04:03.896Z,5.30
2022-12-18T02:05:03.587Z,5.40
2022-12-18T02:06:03.584Z,6.50
2022-12-18T02:07:03.656Z,5.30
2022-12-18T02:08:03.575Z,5.90
2022-12-18T02:09:03.561Z,5.40
2022-12-18T02:10:03.553Z,5.70
2022-12-18T02:11:03.848Z,4.90
2022-12-18T02:12:03.530Z,4.90
2022-12-18T02:13:03.559Z,4.70
2022-12-18T02:14:03.560Z,7.00
2022-12-18T02:15:03.510Z,6.70
2022-12-18T02:16:03.499Z,8.10
2022-12-18T02:17:03.564Z,5.10
2022-12-18T02:18:03.757Z,5.10
2022-12-18T02:19:03.517Z,5.00
2022-12-18T02:20:03.482Z,8.20
2022-12-18T02:21:03.437Z,7.10
2022-12-18T02:22:03.439Z,4.50
2022-12-18T02:23:03.438Z,6.70
2022-12-18T02:24:03.433Z,5.30
2022-12-18T02:25:03.465Z,6.60
2022-12-18T02:26:03.429Z,3.40
2022-12-18T02:27:03.377Z,6.30
2022-12-18T02:28:03.392Z,4.90
2022-12-18T02:29:03.388Z,4.40
2022-12-18T02:30:03.650Z,8.10
2022-12-18T02:31:03.506Z,8.50
2022-12-18T02:32:03.354Z,6.40
2022-12-18T02:33:03.355Z,4.90
2022-12-18T02:34:03.326Z,6.10
2022-12-18T02:35:03.317Z,4.70
2022-12-18T02:36:03.306Z,5.40
2022-12-18T02:37:03.384Z,4.60
2022-12-18T02:38:03.314Z,5.00
2022-12-18T02:39:03.280Z,7.00
2022-12-18T02:40:03.276Z,5.30
2022-12-18T02:41:03.292Z,6.00
2022-12-18T02:42:03.538Z,5.10
2022-12-18T02:43:03.290Z,7.10
2022-12-18T02:44:03.248Z,4.90
2022-12-18T02:45:03.231Z,6.20
2022-12-18T02:46:03.295Z,6.10
2022-12-18T02:47:03.218Z,4.70
2022-12-18T02:48:03.221Z,6.70
2022-12-18T02:49:03.500Z,4.40
2022-12-18T02:50:03.200Z,4.40
2022-12-18T02:51:03.171Z,6.60
2022-12-18T02:52:03.195Z,5.20
2022-12-18T02:53:03.157Z,5.60
2022-12-18T02:54:03.149Z,4.90
2022-12-18T02:55:03.143Z,4.50
2022-12-18T02:56:03.402Z,5.70
2022-12-18T02:57:03.107Z,4.40
2022-12-18T02:58:03.094Z,6.10
2022-12-18T02:59:03.100Z,3.70
2022-12-18T03:00:03.089Z,4.80
2022-12-18T03:01:03.208Z,5.70
2022-12-18T03:02:03.342Z,6.60
2022-12-18T03:03:03.476Z,4.60
2022-12-18T03:04:03.064Z,6.40
2022-12-18T03:05:03.045Z,5.80
2022-12-18T03:06:03.041Z,6.30
2022-12-18T03:07:03.059Z,6.50
2022-12-18T03:08:03.079Z,4.70
2022-12-18T03:09:02.989Z,5.70
2022-12-18T03:10:03.294Z,4.20
2022-12-18T03:11:02.975Z,3.50
2022-12-18T03:12:02.996Z,5.80
2022-12-18T03:13:03.008Z,5.80
2022-12-18T03:14:02.955Z,8.00
2022-12-18T03:15:02.946Z,5.10
2022-12-18T03:16:02.939Z,6.10
2022-12-18T03:17:03.337Z,4.40
2022-12-18T03:18:02.912Z,3.90
2022-12-18T03:19:02.997Z,7.40
2022-12-18T03:20:02.902Z,5.00
2022-12-18T03:21:02.878Z,5.20
2022-12-18T03:22:02.885Z,4.30
2022-12-18T03:23:02.874Z,5.10
2022-12-18T03:24:03.188Z,4.70
2022-12-18T03:25:02.886Z,7.10
2022-12-18T03:26:07.330Z,5.80
2022-12-18T03:27:02.822Z,4.60
2022-12-18T03:28:03.435Z,5.30
2022-12-18T03:29:02.816Z,6.40
2022-12-18T03:30:02.819Z,5.20
2022-12-18T03:31:03.323Z,5.80
2022-12-18T03:32:02.787Z,6.10
2022-12-18T03:33:02.771Z,6.60
2022-12-18T03:34:02.781Z,4.80
2022-12-18T03:35:02.769Z,6.20
2022-12-18T03:36:02.749Z,5.10
2022-12-18T03:37:02.764Z,4.00
2022-12-18T03:38:03.019Z,3.40
2022-12-18T03:39:02.709Z,3.60
2022-12-18T03:40:02.711Z,5.20
2022-12-18T03:41:02.691Z,5.20
2022-12-18T03:42:02.694Z,5.90
2022-12-18T03:43:02.700Z,7.30
2022-12-18T03:44:02.670Z,6.40
2022-12-18T03:45:02.998Z,4.80
2022-12-18T03:46:02.707Z,5.20
2022-12-18T03:47:02.655Z,3.70
2022-12-18T03:48:02.646Z,3.90
2022-12-18T03:49:02.666Z,5.40
2022-12-18T03:50:02.627Z,3.70
2022-12-18T03:51:02.622Z,5.30
2022-12-18T03:52:02.917Z,5.30
2022-12-18T03:53:02.592Z,6.00
2022-12-18T03:54:02.593Z,6.30
2022-12-18T03:55:02.603Z,3.70
2022-12-18T03:56:02.563Z,6.00
2022-12-18T03:57:02.602Z,6.30
2022-12-18T03:58:02.548Z,4.40
2022-12-18T03:59:02.815Z,4.30
2022-12-18T04:00:02.529Z,3.80
2022-12-18T04:01:02.642Z,8.20
2022-12-18T04:02:02.681Z,5.60
2022-12-18T04:03:02.487Z,5.50
2022-12-18T04:04:02.515Z,3.40
2022-12-18T04:05:02.479Z,4.60
2022-12-18T04:06:02.779Z,6.10
2022-12-18T04:07:02.520Z,4.30
2022-12-18T04:08:02.459Z,5.90
2022-12-18T04:09:02.431Z,6.20
2022-12-18T04:10:02.444Z,4.70
2022-12-18T04:11:02.421Z,4.80
2022-12-18T04:12:02.424Z,5.40
2022-12-18T04:13:02.707Z,3.50
2022-12-18T04:14:05.961Z,6.50
2022-12-18T04:15:02.390Z,4.80
2022-12-18T04:16:02.440Z,6.10
2022-12-18T04:17:02.357Z,4.40
2022-12-18T04:18:02.357Z,4.60
2022-12-18T04:19:02.381Z,5.10
2022-12-18T04:20:02.618Z,3.60
2022-12-18T04:21:02.316Z,4.10
2022-12-18T04:22:02.314Z,3.90
2022-12-18T04:23:02.312Z,4.90
2022-12-18T04:24:02.295Z,3.90
2022-12-18T04:25:03.221Z,4.90
2022-12-18T04:26:02.277Z,4.70
2022-12-18T04:27:02.546Z,8.00
2022-12-18T04:28:02.257Z,6.80
2022-12-18T04:29:02.260Z,3.90
2022-12-18T04:30:02.241Z,3.30
2022-12-18T04:31:02.311Z,3.80
2022-12-18T04:32:02.216Z,5.40
2022-12-18T04:33:02.213Z,5.00
2022-12-18T04:34:02.487Z,4.10
2022-12-18T04:35:02.189Z,3.40
2022-12-18T04:36:02.186Z,5.80
2022-12-18T04:37:02.239Z,4.20
2022-12-18T04:38:02.185Z,6.50
2022-12-18T04:39:02.153Z,3.60
2022-12-18T04:40:02.159Z,4.70
2022-12-18T04:41:02.401Z,4.80
2022-12-18T04:42:02.137Z,4.50
2022-12-18T04:43:02.170Z,2.70
2022-12-18T04:44:02.113Z,4.40
2022-12-18T04:45:02.096Z,5.40
2022-12-18T04:46:02.172Z,3.90
2022-12-18T04:47:02.083Z,4.90
2022-12-18T04:48:02.374Z,8.20
2022-12-18T04:49:02.574Z,4.50
2022-12-18T04:50:02.061Z,3.90
2022-12-18T04:51:02.054Z,5.40
2022-12-18T04:52:02.029Z,4.40
2022-12-18T04:53:02.015Z,4.60
2022-12-18T04:54:02.008Z,4.90
2022-12-18T04:55:02.329Z,3.30
2022-12-18T04:56:01.989Z,7.00
2022-12-18T04:57:02.028Z,4.90
2022-12-18T04:58:02.096Z,5.00
2022-12-18T04:59:01.966Z,4.40
2022-12-18T05:00:01.960Z,4.30
2022-12-18T05:01:01.975Z,3.40
2022-12-18T05:02:02.345Z,4.60
2022-12-18T05:03:02.007Z,5.40
2022-12-18T05:04:02.080Z,4.30
2022-12-18T05:05:01.912Z,3.70
2022-12-18T05:06:01.908Z,4.60
2022-12-18T05:07:01.941Z,5.20
2022-12-18T05:08:01.905Z,4.50
2022-12-18T05:09:02.153Z,6.10
2022-12-18T05:10:01.866Z,6.30
2022-12-18T05:11:01.855Z,3.60
2022-12-18T05:12:01.851Z,5.40
2022-12-18T05:13:01.871Z,4.00
2022-12-18T05:14:01.832Z,4.40
2022-12-18T05:15:01.825Z,3.90
2022-12-18T05:16:02.114Z,4.00
2022-12-18T05:17:01.799Z,4.90
2022-12-18T05:18:01.797Z,4.00
2022-12-18T05:19:01.823Z,4.60
2022-12-18T05:20:01.773Z,4.70
2022-12-18T05:21:01.768Z,5.60
2022-12-18T05:22:01.759Z,3.80
2022-12-18T05:23:02.023Z,4.70
2022-12-18T05:24:01.733Z,4.10
2022-12-18T05:25:01.758Z,4.20
2022-12-18T05:26:01.715Z,4.40
2022-12-18T05:27:01.708Z,2.50
2022-12-18T05:28:01.718Z,4.90
2022-12-18T05:29:01.690Z,4.10
2022-12-18T05:30:01.962Z,6.40
2022-12-18T05:31:01.772Z,2.60
2022-12-18T05:32:01.665Z,4.10
2022-12-18T05:33:01.647Z,3.80
2022-12-18T05:34:01.674Z,4.90
2022-12-18T05:35:01.632Z,3.90
2022-12-18T05:36:01.638Z,5.10
2022-12-18T05:37:01.957Z,4.80
2022-12-18T05:38:01.603Z,4.30
2022-12-18T05:39:01.633Z,4.30
2022-12-18T05:40:01.601Z,3.40
2022-12-18T05:41:01.569Z,3.10
2022-12-18T05:42:01.565Z,4.90
2022-12-18T05:43:01.585Z,3.30
2022-12-18T05:44:01.847Z,5.60
2022-12-18T05:45:01.531Z,5.20
2022-12-18T05:46:01.545Z,6.30
2022-12-18T05:47:01.592Z,5.70
2022-12-18T05:48:01.514Z,3.30
2022-12-18T05:49:01.531Z,4.00
2022-12-18T05:50:01.499Z,5.70
2022-12-18T05:51:01.777Z,4.60
2022-12-18T05:52:01.469Z,6.40
2022-12-18T05:53:01.457Z,3.30
2022-12-18T05:54:01.450Z,4.40
2022-12-18T05:55:01.472Z,3.80
2022-12-18T05:56:01.458Z,3.00
2022-12-18T05:57:01.437Z,4.60
2022-12-18T05:58:01.720Z,3.50
2022-12-18T05:59:01.426Z,5.10
2022-12-18T06:00:01.412Z,3.90
2022-12-18T06:01:01.425Z,3.00
2022-12-18T06:02:01.486Z,4.10
2022-12-18T06:03:01.536Z,5.50
2022-12-18T06:04:01.365Z,4.70
2022-12-18T06:05:01.657Z,3.50
2022-12-18T06:06:01.344Z,4.30
2022-12-18T06:07:01.364Z,3.80
2022-12-18T06:08:01.313Z,4.60
2022-12-18T06:09:01.323Z,5.70
2022-12-18T06:10:01.305Z,4.10
2022-12-18T06:11:01.300Z,4.60
2022-12-18T06:12:01.588Z,6.00
2022-12-18T06:13:01.307Z,3.90
2022-12-18T06:14:01.277Z,4.60
2022-12-18T06:15:01.256Z,4.30
2022-12-18T06:16:01.334Z,2.70
2022-12-18T06:17:01.267Z,4.80
2022-12-18T06:18:01.294Z,5.20
2022-12-18T06:19:01.531Z,4.90
2022-12-18T06:20:01.202Z,3.30
2022-12-18T06:21:01.207Z,4.30
2022-12-18T06:22:01.189Z,3.40
2022-12-18T06:23:01.238Z,3.40
2022-12-18T06:24:01.185Z,5.50
2022-12-18T06:25:01.208Z,3.60
2022-12-18T06:26:01.434Z,4.60
2022-12-18T06:27:01.146Z,4.80
2022-12-18T06:28:01.133Z,4.20
2022-12-18T06:29:01.170Z,3.30
2022-12-18T06:30:01.120Z,4.50
2022-12-18T06:31:01.140Z,4.90
2022-12-18T06:32:01.184Z,3.90
2022-12-18T06:33:01.372Z,4.00
2022-12-18T06:34:01.081Z,3.80
2022-12-18T06:35:01.079Z,3.20
2022-12-18T06:36:01.319Z,5.30
2022-12-18T06:37:01.249Z,5.70
2022-12-18T06:38:01.044Z,4.70
2022-12-18T06:39:01.040Z,5.20
2022-12-18T06:40:02.354Z,5.20
2022-12-18T06:41:01.907Z,5.60
2022-12-18T06:42:01.009Z,5.40
2022-12-18T06:43:01.052Z,3.70
2022-12-18T06:44:00.991Z,6.60
2022-12-18T06:45:00.996Z,4.10
2022-12-18T06:46:01.185Z,5.20
2022-12-18T06:47:01.265Z,4.80
2022-12-18T06:48:00.979Z,3.40
2022-12-18T06:49:00.998Z,6.70
2022-12-18T06:50:00.931Z,3.60
2022-12-18T06:51:00.931Z,3.90
2022-12-18T06:52:00.935Z,2.80
2022-12-18T06:53:00.921Z,3.50
2022-12-18T06:54:01.196Z,3.20
2022-12-18T06:55:00.956Z,4.70
2022-12-18T06:56:06.433Z,4.20
2022-12-18T06:57:00.922Z,2.50
2022-12-18T06:58:00.909Z,4.20
2022-12-18T06:59:00.863Z,5.40
2022-12-18T07:00:00.855Z,4.50
2022-12-18T07:01:01.451Z,3.40
2022-12-18T07:02:00.909Z,4.10
2022-12-18T07:03:00.897Z,4.60
2022-12-18T07:04:00.834Z,4.60
2022-12-18T07:05:02.758Z,3.20
2022-12-18T07:06:00.836Z,4.30
2022-12-18T07:07:00.833Z,5.40
2022-12-18T07:08:01.061Z,5.70
2022-12-18T07:09:00.784Z,3.90
2022-12-18T07:10:00.744Z,5.00
2022-12-18T07:11:00.765Z,5.30
2022-12-18T07:12:00.798Z,4.30
2022-12-18T07:13:00.769Z,5.40
2022-12-18T07:14:00.719Z,4.90
2022-12-18T07:15:02.105Z,4.20
2022-12-18T07:16:00.765Z,4.50
2022-12-18T07:17:00.739Z,4.60
2022-12-18T07:18:01.553Z,3.70
2022-12-18T07:19:00.763Z,4.30
2022-12-18T07:20:00.662Z,5.60
2022-12-18T07:21:00.697Z,3.80
2022-12-18T07:22:00.955Z,5.00
2022-12-18T07:23:00.641Z,4.10
2022-12-18T07:24:00.631Z,3.20
2022-12-18T07:25:00.699Z,4.40
2022-12-18T07:26:00.608Z,3.50
2022-12-18T07:27:00.638Z,5.00
2022-12-18T07:28:00.621Z,6.90
2022-12-18T07:29:00.870Z,3.90
2022-12-18T07:30:00.594Z,3.50
2022-12-18T07:31:00.644Z,5.00
2022-12-18T07:32:00.619Z,2.90
2022-12-18T07:33:00.550Z,4.40
2022-12-18T07:34:00.588Z,4.00
2022-12-18T07:35:00.533Z,3.50
2022-12-18T07:36:00.817Z,3.00
2022-12-18T07:37:00.555Z,4.20
2022-12-18T07:38:00.514Z,2.90
2022-12-18T07:39:00.493Z,2.70
2022-12-18T07:40:00.477Z,4.00
2022-12-18T07:41:00.478Z,3.40
2022-12-18T07:42:00.459Z,3.60
2022-12-18T07:43:00.526Z,2.90
2022-12-18T07:44:00.469Z,3.70
2022-12-18T07:45:00.478Z,3.90
2022-12-18T07:46:00.483Z,3.80
2022-12-18T07:47:00.412Z,3.20
2022-12-18T07:48:00.686Z,6.60
2022-12-18T07:49:00.448Z,3.80
2022-12-18T07:50:00.371Z,4.80
2022-12-18T07:51:00.403Z,4.60
2022-12-18T07:52:00.394Z,3.00
2022-12-18T07:53:00.441Z,4.60
2022-12-18T07:54:00.350Z,3.20
2022-12-18T07:55:00.431Z,2.40
2022-12-18T07:56:25.983Z,3.70
2022-12-18T07:57:00.335Z,2.80
2022-12-18T07:58:01.304Z,4.00
2022-12-18T07:59:00.628Z,5.90
2022-12-18T08:00:00.590Z,2.90
2022-12-18T08:01:00.362Z,3.30
2022-12-18T08:02:00.566Z,3.10
2022-12-18T08:03:00.431Z,4.50
2022-12-18T08:04:00.263Z,3.40
2022-12-18T08:05:00.247Z,4.80
2022-12-18T08:06:00.243Z,4.10
2022-12-18T08:07:00.543Z,3.40
2022-12-18T08:08:00.206Z,3.80
2022-12-18T08:09:00.224Z,4.00
2022-12-18T08:10:00.207Z,2.40
2022-12-18T08:11:00.219Z,3.40
2022-12-18T08:12:00.192Z,3.90
2022-12-18T08:13:04.913Z,5.00
2022-12-18T08:14:00.181Z,3.40
2022-12-18T08:15:00.171Z,3.60
2022-12-18T08:16:00.151Z,2.40
2022-12-18T08:17:00.265Z,3.20
2022-12-18T08:18:00.155Z,2.80
2022-12-18T08:19:00.171Z,3.20
2022-12-18T08:20:00.397Z,3.50
2022-12-18T08:21:00.183Z,2.90
2022-12-18T08:22:00.129Z,3.10
2022-12-18T08:23:00.130Z,3.20
2022-12-18T08:24:00.105Z,3.90
2022-12-18T08:25:00.138Z,3.60
2022-12-18T08:26:00.124Z,3.50
2022-12-18T08:28:00.075Z,4.30
2022-12-18T08:29:00.038Z,3.00
2022-12-18T08:30:00.053Z,2.50
2022-12-18T08:31:00.196Z,3.90
2022-12-18T08:32:00.134Z,4.80
2022-12-18T08:33:00.015Z,4.60
2022-12-18T08:34:00.029Z,3.80
2022-12-18T08:35:00.014Z,3.20
2022-12-18T08:36:00.028Z,5.00
2022-12-18T08:37:00.040Z,4.20
2022-12-18T08:37:59.964Z,2.60
2022-12-18T08:38:59.953Z,3.50
2022-12-18T08:40:00.189Z,2.80
2022-12-18T08:40:59.958Z,2.70
2022-12-18T08:41:59.900Z,3.30
2022-12-18T08:42:59.977Z,3.50
2022-12-18T08:43:59.918Z,2.30
2022-12-18T08:44:59.893Z,3.30
2022-12-18T08:45:59.924Z,2.50
2022-12-18T08:47:00.135Z,2.70
2022-12-18T08:47:59.935Z,2.10
2022-12-18T08:48:59.917Z,2.60
2022-12-18T08:49:59.857Z,3.10
2022-12-18T08:50:59.901Z,2.40
2022-12-18T08:51:59.820Z,3.80
2022-12-18T08:52:59.885Z,3.00
2022-12-18T08:54:00.102Z,3.30
2022-12-18T08:54:59.875Z,2.60
2022-12-18T08:55:59.812Z,4.10
2022-12-18T08:56:59.806Z,3.10
2022-12-18T08:57:59.794Z,3.10
2022-12-18T08:58:59.754Z,2.60
2022-12-18T08:59:59.738Z,2.30
2022-12-18T09:01:00.140Z,2.60
2022-12-18T09:01:59.865Z,3.00
2022-12-18T09:02:59.843Z,2.90
2022-12-18T09:03:59.740Z,3.10
2022-12-18T09:04:59.677Z,2.90
2022-12-18T09:05:59.795Z,3.50
2022-12-18T09:06:59.782Z,3.00
2022-12-18T09:07:59.998Z,3.50
2022-12-18T09:08:59.647Z,3.10
2022-12-18T09:09:59.724Z,2.40
2022-12-18T09:10:59.604Z,2.10
2022-12-18T09:11:59.672Z,3.50
2022-12-18T09:12:59.730Z,2.90
2022-12-18T09:13:59.674Z,3.20
2022-12-18T09:14:59.925Z,3.00
2022-12-18T09:15:59.603Z,2.70
2022-12-18T09:16:59.711Z,2.50
2022-12-18T09:17:59.619Z,2.20
2022-12-18T09:18:59.679Z,3.20
2022-12-18T09:19:59.566Z,2.10
2022-12-18T09:20:59.594Z,2.90
2022-12-18T09:21:59.876Z,2.20
2022-12-18T09:22:59.532Z,2.10
2022-12-18T09:23:59.511Z,2.90
2022-12-18T09:24:59.635Z,3.20
2022-12-18T09:25:59.583Z,2.90
2022-12-18T09:26:59.498Z,2.60
2022-12-18T09:27:59.432Z,2.40
2022-12-18T09:28:59.742Z,2.20
2022-12-18T09:29:59.455Z,2.70
2022-12-18T09:30:59.624Z,2.70
2022-12-18T09:31:59.498Z,3.10
2022-12-18T09:32:59.429Z,3.20
2022-12-18T09:33:59.487Z,3.20
2022-12-18T09:34:59.485Z,1.70
2022-12-18T09:35:59.420Z,2.90
2022-12-18T09:36:59.478Z,3.40
2022-12-18T09:37:59.441Z,1.90
2022-12-18T09:39:02.548Z,4.40
2022-12-18T09:39:59.413Z,2.60
2022-12-18T09:40:59.705Z,4.50
2022-12-18T09:41:59.362Z,2.80
2022-12-18T09:42:59.503Z,2.50
2022-12-18T09:43:59.343Z,2.90
2022-12-18T09:44:59.396Z,3.40
2022-12-18T09:45:59.463Z,2.40
2022-12-18T09:46:59.271Z,3.30
2022-12-18T09:47:59.368Z,2.50
2022-12-18T09:48:59.329Z,2.50
2022-12-18T09:49:59.288Z,3.80
2022-12-18T09:50:59.231Z,3.10
2022-12-18T09:51:59.260Z,2.70
2022-12-18T09:52:59.597Z,2.20
2022-12-18T09:53:59.294Z,2.90
2022-12-18T09:54:59.295Z,1.70
2022-12-18T09:55:59.164Z,2.10
2022-12-18T09:56:59.211Z,2.20
2022-12-18T09:57:59.177Z,3.40
2022-12-18T09:58:59.224Z,2.00
2022-12-18T09:59:59.547Z,3.10
2022-12-18T10:00:59.240Z,2.10
2022-12-18T10:01:59.296Z,2.30
2022-12-18T10:02:59.338Z,2.50
2022-12-18T10:03:59.156Z,2.10
2022-12-18T10:04:59.203Z,2.50
2022-12-18T10:05:59.101Z,1.60
2022-12-18T10:07:04.352Z,1.50
2022-12-18T10:07:59.056Z,1.80
2022-12-18T10:08:59.101Z,1.70
2022-12-18T10:09:59.073Z,3.10
2022-12-18T10:10:59.125Z,1.70
2022-12-18T10:11:59.077Z,4.00
2022-12-18T10:13:04.245Z,1.80
2022-12-18T10:13:59.064Z,2.20
2022-12-18T10:14:59.028Z,2.60
2022-12-18T10:15:59.144Z,2.50
2022-12-18T10:16:59.034Z,2.30
2022-12-18T10:17:59.021Z,1.70
2022-12-18T10:18:59.069Z,2.70
2022-12-18T10:19:59.353Z,2.20
2022-12-18T10:20:58.941Z,2.10
2022-12-18T10:21:59.016Z,2.00
2022-12-18T10:22:58.975Z,2.70
2022-12-18T10:23:58.997Z,1.50
2022-12-18T10:24:59.049Z,2.20
2022-12-18T10:25:58.964Z,2.40
2022-12-18T10:26:59.185Z,1.90
2022-12-18T10:27:58.859Z,2.60
2022-12-18T10:29:03.809Z,1.80
2022-12-18T10:29:58.891Z,1.80
2022-12-18T10:30:59.065Z,2.90
2022-12-18T10:31:58.870Z,1.60
2022-12-18T10:32:58.866Z,2.10
2022-12-18T10:33:59.230Z,2.50
2022-12-18T10:35:00.896Z,1.90
2022-12-18T10:35:58.833Z,1.80
2022-12-18T10:36:58.923Z,2.40
2022-12-18T10:37:58.803Z,2.90
2022-12-18T10:38:58.815Z,2.20
2022-12-18T10:39:58.785Z,2.60
2022-12-18T10:40:59.069Z,2.40
2022-12-18T10:41:58.749Z,2.60
2022-12-18T10:42:58.889Z,2.00
2022-12-18T10:43:58.752Z,3.10
2022-12-18T10:44:58.751Z,2.50
2022-12-18T10:45:58.807Z,2.20
2022-12-18T10:46:58.736Z,2.50
2022-12-18T10:47:59.048Z,2.90
2022-12-18T10:48:58.827Z,1.80
2022-12-18T10:49:58.738Z,2.80
2022-12-18T10:51:10.773Z,2.70
2022-12-18T10:51:58.689Z,2.70
2022-12-18T10:52:58.641Z,3.70
2022-12-18T10:53:58.675Z,2.40
2022-12-18T10:54:59.117Z,2.10
2022-12-18T10:55:58.651Z,2.20
2022-12-18T10:56:58.564Z,2.60
2022-12-18T10:57:58.634Z,1.70
2022-12-18T10:58:58.568Z,2.40
2022-12-18T10:59:58.590Z,2.50
2022-12-18T11:00:58.696Z,2.10
2022-12-18T11:01:59.036Z,2.30
2022-12-18T11:02:58.965Z,2.50
2022-12-18T11:04:02.004Z,2.00
2022-12-18T11:04:58.587Z,2.90
2022-12-18T11:05:58.576Z,2.40
2022-12-18T11:06:58.606Z,3.20
2022-12-18T11:07:58.473Z,1.90
2022-12-18T11:08:58.769Z,2.30
2022-12-18T11:09:58.537Z,2.80
2022-12-18T11:10:58.457Z,2.50
2022-12-18T11:11:58.502Z,2.60
2022-12-18T11:12:58.558Z,2.70
2022-12-18T11:13:58.505Z,1.40
2022-12-18T11:14:58.519Z,2.30
2022-12-18T11:15:58.784Z,1.60
2022-12-18T11:17:24.158Z,2.60
2022-12-18T11:17:58.473Z,1.80
2022-12-18T11:18:58.485Z,2.50
2022-12-18T11:19:58.429Z,1.50
2022-12-18T11:20:58.969Z,3.10
2022-12-18T11:21:58.375Z,2.10
2022-12-18T11:22:58.711Z,2.10
2022-12-18T11:23:58.297Z,1.60
2022-12-18T11:25:30.057Z,3.30
2022-12-18T11:25:58.455Z,1.80
2022-12-18T11:27:00.006Z,2.90
2022-12-18T11:27:58.367Z,2.80
2022-12-18T11:28:58.340Z,1.90
2022-12-18T11:29:58.619Z,2.20
2022-12-18T11:30:58.528Z,3.10
2022-12-18T11:31:58.342Z,3.10
2022-12-18T11:32:58.215Z,2.60
2022-12-18T11:34:27.417Z,2.50
2022-12-18T11:34:59.275Z,2.00
2022-12-18T11:35:58.183Z,1.60
2022-12-18T11:36:58.560Z,1.90
2022-12-18T11:37:58.227Z,1.50
2022-12-18T11:38:58.244Z,1.60
2022-12-18T11:39:58.416Z,2.30
2022-12-18T11:40:58.189Z,2.70
2022-12-18T11:41:58.269Z,1.70
2022-12-18T11:42:58.239Z,3.80
2022-12-18T11:43:58.435Z,2.10
2022-12-18T11:44:58.209Z,1.60
2022-12-18T11:45:58.187Z,2.90
2022-12-18T11:46:58.247Z,1.50
2022-12-18T11:47:58.130Z,1.60
2022-12-18T11:48:58.247Z,1.40
2022-12-18T11:49:58.071Z,2.50
2022-12-18T11:50:58.418Z,1.90
2022-12-18T11:51:58.123Z,4.50
2022-12-18T11:53:02.799Z,1.80
2022-12-18T11:53:58.014Z,2.30
2022-12-18T11:54:58.137Z,2.40
2022-12-18T11:55:57.985Z,2.30
2022-12-18T11:56:58.141Z,2.50
2022-12-18T11:57:58.380Z,2.40
2022-12-18T11:58:58.043Z,1.80
2022-12-18T11:59:58.086Z,1.50
2022-12-18T12:00:58.057Z,2.90
2022-12-18T12:01:58.176Z,2.10
2022-12-18T12:02:58.132Z,1.60
2022-12-18T12:03:58.024Z,2.10
2022-12-18T12:04:58.274Z,2.30
2022-12-18T12:05:57.951Z,2.40
2022-12-18T12:07:02.921Z,2.50
2022-12-18T12:07:57.945Z,1.70
2022-12-18T12:08:57.951Z,2.90
2022-12-18T12:09:57.855Z,2.90
2022-12-18T12:10:57.912Z,3.10
2022-12-18T12:11:58.177Z,2.20
2022-12-18T12:12:57.894Z,1.30
2022-12-18T12:13:57.890Z,3.20
2022-12-18T12:14:57.848Z,2.00
2022-12-18T12:15:57.864Z,2.00
2022-12-18T12:16:57.837Z,2.10
2022-12-18T12:17:57.899Z,1.90
2022-12-18T12:18:58.293Z,3.40
2022-12-18T12:19:57.776Z,2.20
2022-12-18T12:20:57.781Z,3.00
2022-12-18T12:21:57.719Z,2.10
2022-12-18T12:22:57.806Z,1.60
2022-12-18T12:23:57.769Z,1.50
2022-12-18T12:24:57.934Z,2.00
2022-12-18T12:25:58.076Z,1.50
2022-12-18T12:26:57.701Z,1.80
2022-12-18T12:27:57.794Z,1.90
2022-12-18T12:28:57.763Z,2.70
2022-12-18T12:29:57.752Z,2.60
2022-12-18T12:30:57.747Z,2.00
2022-12-18T12:31:57.787Z,2.40
2022-12-18T12:32:58.060Z,1.90
2022-12-18T12:33:57.723Z,1.90
2022-12-18T12:35:00.941Z,2.50
2022-12-18T12:35:57.643Z,1.80
2022-12-18T12:36:57.633Z,2.10
2022-12-18T12:37:58.170Z,1.80
2022-12-18T12:38:57.589Z,2.50
2022-12-18T12:39:57.875Z,1.90
2022-12-18T12:41:02.895Z,1.90
2022-12-18T12:41:57.570Z,1.60
2022-12-18T12:42:57.737Z,2.80
2022-12-18T12:43:57.541Z,3.30
2022-12-18T12:44:57.576Z,2.40
2022-12-18T12:45:57.504Z,2.40
2022-12-18T12:46:57.852Z,2.60
2022-12-18T12:47:57.525Z,1.70
2022-12-18T12:48:57.676Z,2.00
2022-12-18T12:49:57.622Z,1.90
2022-12-18T12:50:57.527Z,1.60
2022-12-18T12:51:57.579Z,4.10
2022-12-18T12:52:57.505Z,2.00
2022-12-18T12:53:57.855Z,2.20
2022-12-18T12:54:57.883Z,2.10
2022-12-18T12:55:57.447Z,2.20
2022-12-18T12:56:57.510Z,3.10
2022-12-18T12:57:57.398Z,2.20
2022-12-18T12:58:57.408Z,3.60
2022-12-18T12:59:57.464Z,2.30
2022-12-18T13:00:58.136Z,3.00
2022-12-18T13:01:57.495Z,2.10
2022-12-18T13:02:57.420Z,2.20
2022-12-18T13:03:57.385Z,1.80
2022-12-18T13:04:57.350Z,1.80
2022-12-18T13:05:57.386Z,2.90
2022-12-18T13:06:57.438Z,2.70
2022-12-18T13:07:58.492Z,3.70
2022-12-18T13:08:57.305Z,2.50
2022-12-18T13:09:57.306Z,3.90
2022-12-18T13:10:57.332Z,1.70
2022-12-18T13:11:59.941Z,2.70
2022-12-18T13:12:57.351Z,2.00
2022-12-18T13:13:57.287Z,3.00
2022-12-18T13:14:57.526Z,2.70
2022-12-18T13:15:57.204Z,2.60
2022-12-18T13:16:57.196Z,2.40
2022-12-18T13:17:57.277Z,2.30
2022-12-18T13:18:57.287Z,1.90
2022-12-18T13:19:57.236Z,2.60